Time;durP1;ratioP1;P1;durP2;ratioP2;P2;SDS_P1;SDS_P2;PMS_P1;PMS_P2;Temp;Humidity;BMP_temperature;BMP_pressure;BME280_temperature;BME280_humidity;BME280_pressure;Samples;Min_cycle;Max_cycle;Signal;HPM_P1;HPM_P2
2023/07/14 00:01:48;;;;;;;6.95;3.15;;;;;;;14.85;100.00;96944.63;4968647;28;20121;-67
2023/07/14 00:04:16;;;;;;;5.18;2.55;;;;;;;14.84;100.00;96945.03;4958446;28;20101;-69
2023/07/14 00:06:44;;;;;;;7.03;2.70;;;;;;;14.82;100.00;96942.66;4963677;28;20440;-66
2023/07/14 00:09:22;;;;;;;6.78;2.88;;;;;;;14.68;100.00;96948.91;4957951;28;20459;-67
2023/07/14 00:11:47;;;;;;;7.72;2.83;;;;;;;14.66;100.00;96945.75;4965637;28;20046;-66
2023/07/14 00:14:13;;;;;;;6.63;2.80;;;;;;;14.43;100.00;96946.00;4962779;28;20040;-66
2023/07/14 00:16:38;;;;;;;8.00;2.67;;;;;;;14.31;100.00;96935.28;4974772;28;20097;-68
2023/07/14 00:19:11;;;;;;;8.75;2.78;;;;;;;14.15;100.00;96938.34;4978328;28;20042;-68
2023/07/14 00:21:37;;;;;;;10.68;3.53;;;;;;;14.25;100.00;96934.09;4982680;28;20043;-68
2023/07/14 00:24:10;;;;;;;10.02;3.05;;;;;;;14.32;100.00;96931.38;4988288;28;20056;-70
2023/07/14 00:26:35;;;;;;;9.65;3.05;;;;;;;14.31;100.00;96933.34;4982198;28;20039;-67
2023/07/14 00:29:16;;;;;;;6.10;3.08;;;;;;;14.29;100.00;96924.66;4966011;28;20133;-68
2023/07/14 00:31:42;;;;;;;7.25;3.22;;;;;;;14.32;100.00;96917.59;4966853;28;20042;-68
2023/07/14 00:34:09;;;;;;;6.30;2.78;;;;;;;14.31;100.00;96913.25;4962382;28;20145;-68
2023/07/14 00:36:34;;;;;;;5.60;2.42;;;;;;;14.43;100.00;96912.94;4966435;28;20058;-69
2023/07/14 00:38:59;;;;;;;6.03;2.85;;;;;;;14.51;100.00;96910.97;4968093;28;20043;-68
2023/07/14 00:41:25;;;;;;;6.57;2.75;;;;;;;14.45;100.00;96918.06;4962340;28;20106;-69
2023/07/14 00:43:51;;;;;;;6.47;2.83;;;;;;;14.28;100.00;96903.81;4966542;28;20057;-68
2023/07/14 00:46:45;;;;;;;5.18;2.60;;;;;;;14.45;100.00;96913.31;4962794;28;20579;-68
2023/07/14 00:49:20;;;;;;;5.47;2.83;;;;;;;14.42;100.00;96905.03;4959706;28;20133;-67
2023/07/14 00:51:46;;;;;;;4.43;2.58;;;;;;;14.39;100.00;96903.09;4966241;28;20050;-68
2023/07/14 00:54:25;;;;;;;8.07;2.95;;;;;;;14.43;100.00;96901.13;4962224;28;20498;-67
2023/07/14 00:56:52;;;;;;;5.28;2.83;;;;;;;14.35;100.00;96903.06;4966393;28;20480;-68
2023/07/14 00:59:17;;;;;;;6.72;3.10;;;;;;;14.25;100.00;96901.81;4961811;28;20102;-68
2023/07/14 01:02:23;;;;;;;8.27;2.85;;;;;;;14.35;100.00;96900.31;4966873;28;20062;-67
2023/07/14 01:04:57;;;;;;;7.70;2.90;;;;;;;14.55;100.00;96898.03;4868576;29;20045;-69
2023/07/14 01:07:28;;;;;;;6.45;2.70;;;;;;;14.50;100.00;96892.88;4949682;28;20807;-68
2023/07/14 01:09:55;;;;;;;9.07;3.25;;;;;;;14.53;100.00;96897.59;4965691;28;20125;-67
2023/07/14 01:12:23;;;;;;;6.22;3.00;;;;;;;14.68;100.00;96890.22;4962893;28;20031;-67
2023/07/14 01:14:51;;;;;;;4.65;2.92;;;;;;;14.77;100.00;96890.63;4973847;28;20078;-67
2023/07/14 01:17:18;;;;;;;7.88;2.92;;;;;;;14.76;100.00;96885.50;4974715;28;20495;-67
2023/07/14 01:19:51;;;;;;;9.05;2.92;;;;;;;14.73;100.00;96889.84;4985199;28;20061;-68
2023/07/14 01:22:29;;;;;;;4.80;2.92;;;;;;;14.89;100.00;96881.19;4981121;28;20042;-68
2023/07/14 01:25:24;;;;;;;6.35;3.00;;;;;;;14.90;100.00;96886.34;4986310;28;20066;-68
2023/07/14 01:27:50;;;;;;;10.38;3.50;;;;;;;14.82;100.00;96881.19;4984825;28;20050;-69
2023/07/14 01:30:17;;;;;;;8.32;3.47;;;;;;;14.81;100.00;96880.41;4961877;28;20105;-70
2023/07/14 01:32:46;;;;;;;6.20;3.42;;;;;;;14.81;100.00;96879.63;4965818;28;20501;-68
2023/07/14 01:35:13;;;;;;;11.32;3.70;;;;;;;14.85;100.00;96875.69;4960349;28;20085;-67
2023/07/14 01:37:39;;;;;;;9.07;3.67;;;;;;;14.82;100.00;96876.47;4965993;28;20190;-68
2023/07/14 01:40:11;;;;;;;8.50;3.80;;;;;;;14.86;100.00;96885.53;4961230;28;20053;-68
2023/07/14 01:42:38;;;;;;;8.85;3.88;;;;;;;14.89;100.00;96873.75;4965882;28;20383;-68
2023/07/14 01:45:09;;;;;;;8.07;3.80;;;;;;;14.92;100.00;96866.63;4966333;28;20055;-69
2023/07/14 01:47:36;;;;;;;9.65;3.58;;;;;;;14.89;100.00;96872.94;4968655;28;20043;-68
2023/07/14 01:50:03;;;;;;;7.63;3.72;;;;;;;14.77;100.00;96868.59;4966684;28;20070;-70
2023/07/14 01:52:31;;;;;;;6.95;4.03;;;;;;;14.77;100.00;96865.81;4965257;28;20129;-66
2023/07/14 01:55:01;;;;;;;5.88;3.90;;;;;;;14.73;100.00;96873.31;4966227;28;20117;-68
2023/07/14 01:57:30;;;;;;;6.13;3.40;;;;;;;14.67;100.00;96870.13;4961288;28;20038;-67
2023/07/14 02:00:04;;;;;;;7.53;4.18;;;;;;;14.67;100.00;96872.09;4965137;28;20050;-68
2023/07/14 02:02:35;;;;;;;6.35;3.38;;;;;;;14.56;100.00;96877.53;4964893;28;20054;-69
2023/07/14 02:05:31;;;;;;;8.35;4.00;;;;;;;14.50;100.00;96871.63;4965605;28;20498;-68
2023/07/14 02:08:02;;;;;;;5.80;4.00;;;;;;;14.37;100.00;96867.66;4963124;28;20057;-68
2023/07/14 02:10:28;;;;;;;7.55;4.05;;;;;;;14.32;100.00;96866.03;4945554;28;20046;-68
2023/07/14 02:12:55;;;;;;;8.05;4.10;;;;;;;14.17;100.00;96864.41;4963838;28;20081;-68
2023/07/14 02:15:25;;;;;;;6.78;3.50;;;;;;;14.14;100.00;96867.94;4968677;28;20042;-67
2023/07/14 02:17:53;;;;;;;9.02;4.22;;;;;;;14.02;100.00;96858.03;4982517;28;20096;-67
2023/07/14 02:20:41;;;;;;;9.65;4.95;;;;;;;13.88;100.00;96856.00;4980173;28;20073;-68
2023/07/14 02:23:12;;;;;;;7.43;4.38;;;;;;;14.00;100.00;96856.84;4979177;28;20038;-68
2023/07/14 02:25:42;;;;;;;9.77;3.95;;;;;;;14.15;100.00;96856.53;4986718;28;20050;-67
2023/07/14 02:28:10;;;;;;;9.85;3.78;;;;;;;14.13;100.00;96852.56;4985200;28;20043;-69
2023/07/14 02:30:37;;;;;;;8.80;4.22;;;;;;;14.17;100.00;96858.09;4968196;28;20043;-67
2023/07/14 02:33:13;;;;;;;12.45;4.88;;;;;;;14.05;100.00;96851.75;4944785;28;20130;-70
2023/07/14 02:36:00;;;;;;;13.07;4.38;;;;;;;14.01;100.00;96842.69;4945386;28;20055;-68
2023/07/14 02:38:26;;;;;;;5.82;3.97;;;;;;;14.01;100.00;96845.44;4940071;28;20047;-66
2023/07/14 02:40:54;;;;;;;8.25;4.53;;;;;;;13.98;100.00;96835.19;4945347;28;20062;-68
2023/07/14 02:43:22;;;;;;;8.68;4.63;;;;;;;14.04;100.00;96839.13;4952251;28;20183;-67
2023/07/14 02:46:06;;;;;;;7.10;4.40;;;;;;;14.14;100.00;96832.13;4964252;28;20039;-67
2023/07/14 02:48:34;;;;;;;7.93;4.55;;;;;;;14.18;100.00;96834.88;4969958;28;20046;-67
2023/07/14 02:50:59;;;;;;;7.65;4.10;;;;;;;14.21;100.00;96836.88;4966126;28;20047;-67
2023/07/14 02:53:25;;;;;;;9.32;4.70;;;;;;;14.26;100.00;96834.53;4963310;28;20479;-68
2023/07/14 02:55:50;;;;;;;7.40;4.50;;;;;;;14.30;100.00;96835.34;4964783;28;20046;-68
2023/07/14 02:58:17;;;;;;;5.78;4.40;;;;;;;14.34;100.00;96830.63;4959586;28;20043;-67
2023/07/14 03:00:43;;;;;;;6.05;4.13;;;;;;;14.37;100.00;96829.06;4964201;28;20491;-67
2023/07/14 03:03:08;;;;;;;9.32;4.50;;;;;;;14.43;100.00;96826.72;4959396;28;20046;-68
2023/07/14 03:05:34;;;;;;;9.57;4.50;;;;;;;14.47;100.00;96830.28;4963416;28;20046;-68
2023/07/14 03:08:00;;;;;;;7.65;4.50;;;;;;;14.58;100.00;96833.09;4964022;28;20047;-67
2023/07/14 03:10:26;;;;;;;6.30;4.55;;;;;;;14.67;100.00;96834.28;4958896;28;20130;-70
2023/07/14 03:12:53;;;;;;;7.40;4.72;;;;;;;14.67;100.00;96839.00;4963569;28;20137;-67
2023/07/14 03:15:19;;;;;;;7.85;4.53;;;;;;;14.65;100.00;96838.63;4967265;28;20082;-68
2023/07/14 03:17:44;;;;;;;7.32;4.38;;;;;;;14.64;100.00;96829.56;4980281;28;20100;-68
2023/07/14 03:20:11;;;;;;;7.32;4.30;;;;;;;14.66;100.00;96829.19;4978239;28;20137;-67
2023/07/14 03:22:36;;;;;;;6.55;3.83;;;;;;;14.61;100.00;96821.28;4982820;28;20421;-69
2023/07/14 03:25:02;;;;;;;7.10;3.85;;;;;;;14.58;100.00;96819.31;4984573;28;20031;-69
2023/07/14 03:27:27;;;;;;;9.70;4.20;;;;;;;14.57;100.00;96820.44;4979010;28;20040;-69
2023/07/14 03:29:53;;;;;;;7.15;4.03;;;;;;;14.58;100.00;96828.34;4948664;28;20046;-70
2023/07/14 03:32:19;;;;;;;6.95;4.38;;;;;;;14.62;100.00;96822.84;4958228;28;20078;-67
2023/07/14 03:34:44;;;;;;;5.15;3.72;;;;;;;14.68;100.00;96819.34;4963644;28;20042;-68
2023/07/14 03:37:10;;;;;;;7.80;4.07;;;;;;;14.67;100.00;96816.97;4959166;28;20383;-68
2023/07/14 03:39:35;;;;;;;7.88;4.10;;;;;;;14.67;100.00;96825.22;4962910;28;20043;-67
2023/07/14 03:42:00;;;;;;;9.27;4.18;;;;;;;14.61;100.00;96816.56;4964072;28;20043;-70
2023/07/14 03:44:26;;;;;;;9.65;4.72;;;;;;;14.62;100.00;96822.84;4958341;28;20157;-69
2023/07/14 03:46:51;;;;;;;8.30;4.45;;;;;;;14.63;100.00;96818.94;4969378;28;20047;-70
2023/07/14 03:49:17;;;;;;;8.23;4.25;;;;;;;14.71;100.00;96826.03;4965845;28;20052;-69
2023/07/14 03:51:43;;;;;;;6.72;4.05;;;;;;;14.71;100.00;96817.75;4969897;28;20065;-69
2023/07/14 03:54:10;;;;;;;7.47;4.00;;;;;;;14.68;100.00;96826.81;4966131;28;20101;-68
2023/07/14 03:56:35;;;;;;;7.25;4.18;;;;;;;14.63;100.00;96819.72;4971297;28;20433;-68
2023/07/14 03:59:01;;;;;;;9.98;4.20;;;;;;;14.66;100.00;96816.19;4967273;28;20045;-68
2023/07/14 04:01:27;;;;;;;6.95;4.60;;;;;;;14.63;100.00;96819.72;4941900;28;20078;-69
2023/07/14 04:03:54;;;;;;;7.40;4.72;;;;;;;14.66;100.00;96809.88;4964603;28;20039;-69
2023/07/14 04:06:19;;;;;;;7.90;4.07;;;;;;;14.65;100.00;96813.81;4957607;28;20046;-68
2023/07/14 04:08:45;;;;;;;8.82;4.55;;;;;;;14.71;100.00;96812.22;4963470;28;20046;-68
2023/07/14 04:11:12;;;;;;;8.02;4.40;;;;;;;14.71;100.00;96815.81;4959945;28;20047;-69
2023/07/14 04:13:38;;;;;;;6.78;4.65;;;;;;;14.64;100.00;96795.69;4963289;28;20038;-68
2023/07/14 04:16:07;;;;;;;8.77;4.60;;;;;;;14.63;100.00;96803.16;4953152;28;20412;-70
2023/07/14 04:18:32;;;;;;;8.85;4.07;;;;;;;14.67;100.00;96797.66;4983202;28;20469;-69
2023/07/14 04:21:02;;;;;;;8.30;4.25;;;;;;;14.69;100.00;96801.63;4983557;28;20129;-69
2023/07/14 04:23:27;;;;;;;9.63;4.28;;;;;;;14.77;100.00;96796.91;4980224;28;20068;-67
2023/07/14 04:25:54;;;;;;;6.18;3.60;;;;;;;14.84;100.00;96794.16;4982025;28;20133;-68
2023/07/14 04:28:19;;;;;;;5.07;3.75;;;;;;;14.88;100.00;96799.66;4977832;28;20112;-70
2023/07/14 04:30:55;;;;;;;9.23;3.75;;;;;;;15.00;100.00;96804.00;4977669;28;20426;-69
2023/07/14 04:33:21;;;;;;;7.43;3.83;;;;;;;15.24;100.00;96794.94;4958930;28;20071;-68
2023/07/14 04:35:51;;;;;;;8.65;4.10;;;;;;;15.35;100.00;96794.94;4980053;28;20050;-69
2023/07/14 04:38:17;;;;;;;8.73;3.92;;;;;;;15.36;100.00;96790.19;4992205;28;20038;-69
2023/07/14 04:40:44;;;;;;;8.75;4.20;;;;;;;15.57;100.00;96789.38;4986776;28;20047;-69
2023/07/14 04:43:09;;;;;;;7.63;3.33;;;;;;;15.85;100.00;96785.81;4962734;28;20043;-71
2023/07/14 04:45:39;;;;;;;5.55;3.65;;;;;;;15.97;100.00;96790.91;4983116;28;20053;-69
2023/07/14 04:48:05;;;;;;;;;;;;;;;16.01;100.00;96788.91;4981046;28;20106;-70
2023/07/14 04:50:31;;;;;;;4.82;3.55;;;;;;;16.36;100.00;96776.09;4969237;28;19922;-71
2023/07/14 04:52:56;;;;;;;9.63;3.38;;;;;;;16.66;100.00;96777.53;4964818;28;20426;-69
2023/07/14 04:55:23;;;;;;;5.57;3.33;;;;;;;16.70;100.00;96777.50;4940525;28;20051;-69
2023/07/14 04:57:48;;;;;;;6.07;3.20;;;;;;;16.81;100.00;96784.53;4964741;28;20050;-70
2023/07/14 05:00:15;;;;;;;5.00;2.92;;;;;;;17.24;100.00;96788.19;4958019;28;20484;-67
2023/07/14 05:02:40;;;;;;;5.65;2.72;;;;;;;18.17;100.00;96792.00;4962409;28;20035;-67
2023/07/14 05:05:26;;;;;;;4.97;2.83;;;;;;;19.92;100.00;96790.56;4957589;28;20041;-69
2023/07/14 05:07:52;;;;;;;4.65;2.40;;;;;;;19.43;98.25;96788.22;4963017;28;20082;-68
2023/07/14 05:10:19;;;;;;;5.68;2.80;;;;;;;19.77;96.40;96795.56;4957385;28;20070;-71
2023/07/14 05:12:45;;;;;;;7.20;2.53;;;;;;;19.72;94.50;96798.84;4945470;28;20436;-68
2023/07/14 05:15:10;;;;;;;6.63;2.60;;;;;;;19.79;93.45;96795.94;4967992;28;20034;-69
2023/07/14 05:17:43;;;;;;;4.57;2.50;;;;;;;19.66;90.59;96795.75;4980950;28;20065;-71
2023/07/14 05:20:10;;;;;;;5.47;2.90;;;;;;;19.68;92.40;96799.69;4963532;28;20038;-71
2023/07/14 05:22:45;;;;;;;4.57;2.65;;;;;;;19.95;91.33;96798.03;4985510;28;20138;-71
2023/07/14 05:25:12;;;;;;;6.53;2.60;;;;;;;21.04;87.18;96792.53;4982069;28;20077;-70
2023/07/14 05:27:38;;;;;;;4.93;2.20;;;;;;;21.12;81.02;96796.75;4987054;28;20046;-71
2023/07/14 05:30:05;;;;;;;5.80;2.58;;;;;;;20.70;83.68;96787.38;4981979;28;20116;-74
2023/07/14 05:32:31;;;;;;;3.55;2.25;;;;;;;20.65;84.65;96787.88;4984918;28;20042;-71
2023/07/14 05:34:57;;;;;;;3.40;1.95;;;;;;;21.14;84.25;96780.38;4985173;28;20472;-71
2023/07/14 05:37:22;;;;;;;4.93;2.10;;;;;;;23.07;71.00;96778.28;4981266;28;20179;-71
2023/07/14 05:39:48;;;;;;;5.95;2.05;;;;;;;21.23;78.03;96790.09;4985247;28;20553;-71
2023/07/14 05:42:13;;;;;;;7.22;2.03;;;;;;;22.20;77.37;96782.00;4971382;28;20042;-69
2023/07/14 05:44:39;;;;;;;9.35;3.08;;;;;;;21.62;76.92;96772.44;4969372;28;20400;-69
2023/07/14 05:47:05;;;;;;;4.72;2.28;;;;;;;20.93;80.40;96781.66;4977947;28;20049;-70
2023/07/14 05:49:31;;;;;;;4.43;2.13;;;;;;;21.19;79.64;96779.06;4978225;28;20038;-67
2023/07/14 05:51:56;;;;;;;4.68;2.10;;;;;;;20.51;83.67;96769.47;4965483;28;20038;-69
2023/07/14 05:54:24;;;;;;;5.18;2.15;;;;;;;21.75;76.62;96769.69;4968921;28;20392;-69
2023/07/14 05:56:50;;;;;;;7.10;2.33;;;;;;;20.58;78.84;96766.53;4970953;28;20145;-70
2023/07/14 05:59:16;;;;;;;4.43;2.30;;;;;;;21.78;74.17;96768.81;4963936;28;20053;-70
2023/07/14 06:01:41;;;;;;;4.85;2.20;;;;;;;21.84;71.91;96777.44;4985144;28;20100;-71
2023/07/14 06:04:07;;;;;;;5.28;2.38;;;;;;;22.38;68.90;96773.94;4980419;28;20125;-69
2023/07/14 06:06:32;;;;;;;2.90;1.80;;;;;;;22.05;70.97;96787.22;4984766;28;20045;-69
2023/07/14 06:09:00;;;;;;;5.18;2.05;;;;;;;23.93;64.77;96791.38;4984813;28;20042;-71
2023/07/14 06:11:26;;;;;;;7.20;2.00;;;;;;;24.72;59.19;96803.31;4980544;28;20511;-72
2023/07/14 06:13:51;;;;;;;4.03;1.90;;;;;;;23.81;59.15;96790.97;4977268;28;20097;-71
2023/07/14 06:16:20;;;;;;;5.70;2.00;;;;;;;23.83;63.50;96785.72;4971429;28;20046;-70
2023/07/14 06:18:45;;;;;;;8.40;1.92;;;;;;;21.71;69.38;96780.16;4950766;28;20524;-70
2023/07/14 06:21:12;;;;;;;6.45;2.30;;;;;;;22.25;71.69;96785.03;4966459;28;20073;-71
2023/07/14 06:23:37;;;;;;;6.75;2.20;;;;;;;22.78;67.46;96795.09;4986768;28;20388;-71
2023/07/14 06:26:02;;;;;;;3.42;2.25;;;;;;;24.21;61.10;96792.38;4981161;28;20075;-74
2023/07/14 06:28:28;;;;;;;6.00;2.08;;;;;;;23.33;62.12;96795.00;4981599;28;20046;-70
2023/07/14 06:31:01;;;;;;;5.53;2.30;;;;;;;22.25;71.28;96779.47;4984665;28;20046;-68
2023/07/14 06:33:27;;;;;;;5.72;2.13;;;;;;;22.83;67.62;96784.16;4979690;28;20050;-68
2023/07/14 06:35:55;;;;;;;4.13;1.73;;;;;;;23.04;67.13;96779.13;4985611;28;20053;-70
2023/07/14 06:38:21;;;;;;;8.27;2.20;;;;;;;22.04;70.21;96774.50;4980587;28;20507;-70
2023/07/14 06:40:46;;;;;;;3.33;2.10;;;;;;;22.26;71.59;96771.91;4984285;28;20136;-72
2023/07/14 06:43:12;;;;;;;6.95;2.47;;;;;;;22.33;69.55;96768.94;4979342;28;20101;-70
2023/07/14 06:45:37;;;;;;;4.72;2.33;;;;;;;22.26;70.69;96769.09;4985024;28;20046;-68
2023/07/14 06:48:03;;;;;;;5.85;1.95;;;;;;;24.48;60.24;96768.59;4981214;28;20392;-76
2023/07/14 06:50:29;;;;;;;3.95;1.90;;;;;;;25.06;59.99;96773.56;4982221;28;20051;-73
2023/07/14 06:52:54;;;;;;;4.80;2.10;;;;;;;23.91;63.11;96768.69;4990274;28;20563;-70
2023/07/14 06:55:20;;;;;;;5.82;2.00;;;;;;;24.16;62.58;96762.19;4980546;28;20384;-70
2023/07/14 06:57:46;;;;;;;4.07;1.80;;;;;;;25.07;58.88;96769.53;4982682;28;20089;-69
2023/07/14 07:00:12;;;;;;;4.53;2.05;;;;;;;24.91;58.40;96764.19;4980213;28;20502;-71
2023/07/14 07:02:41;;;;;;;3.45;1.90;;;;;;;23.51;63.06;96763.66;4983354;28;20038;-69
2023/07/14 07:05:08;;;;;;;4.47;1.70;;;;;;;25.49;55.99;96760.59;4979885;28;20039;-70
2023/07/14 07:07:34;;;;;;;5.47;2.20;;;;;;;25.11;55.32;96753.34;4985143;28;20053;-72
2023/07/14 07:09:59;;;;;;;3.47;1.80;;;;;;;25.29;54.80;96757.47;4985686;28;20042;-72
2023/07/14 07:12:25;;;;;;;4.95;2.30;;;;;;;24.29;57.57;96739.72;4996117;28;20057;-68
2023/07/14 07:14:51;;;;;;;5.00;2.03;;;;;;;26.89;50.55;96745.97;4983464;28;20039;-69
2023/07/14 07:17:16;;;;;;;3.15;1.60;;;;;;;25.78;53.13;96747.41;4979293;28;20061;-70
2023/07/14 07:19:42;;;;;;;3.00;1.73;;;;;;;24.32;55.03;96747.22;4983809;28;20480;-73
2023/07/14 07:22:08;;;;;;;5.07;1.70;;;;;;;22.91;61.40;96726.06;4978905;28;20547;-71
2023/07/14 07:24:34;;;;;;;5.35;2.05;;;;;;;22.82;63.06;96739.94;4985480;28;20141;-69
2023/07/14 07:27:01;;;;;;;4.85;1.80;;;;;;;23.52;62.37;96724.06;4999675;28;20053;-69
2023/07/14 07:29:26;;;;;;;6.20;2.80;;;;;;;24.24;59.58;96730.69;4994290;28;20097;-69
2023/07/14 07:31:52;;;;;;;3.03;1.88;;;;;;;25.37;55.68;96719.47;4987395;28;20046;-69
2023/07/14 07:34:17;;;;;;;5.28;1.85;;;;;;;24.81;57.06;96724.13;4996030;28;20496;-71
2023/07/14 07:36:43;;;;;;;7.93;2.03;;;;;;;26.76;51.60;96717.31;4986838;28;20097;-70
2023/07/14 07:39:09;;;;;;;6.63;1.98;;;;;;;25.23;55.20;96717.22;4977462;28;20042;-70
2023/07/14 07:41:35;;;;;;;5.47;1.70;;;;;;;24.01;58.72;96715.16;4984463;28;20046;-70
2023/07/14 07:44:01;;;;;;;3.65;1.70;;;;;;;25.48;54.39;96717.00;4984563;28;20530;-69
2023/07/14 07:46:27;;;;;;;8.10;2.38;;;;;;;23.71;58.39;96710.25;4980581;28;20061;-70
2023/07/14 07:48:53;;;;;;;7.35;1.77;;;;;;;23.50;61.53;96711.78;4987229;28;20049;-69
2023/07/14 07:51:19;;;;;;;3.17;1.73;;;;;;;24.41;59.26;96702.47;4986480;28;20129;-70
2023/07/14 07:53:44;;;;;;;4.63;1.88;;;;;;;23.68;61.38;96689.56;4986611;28;20053;-70
2023/07/14 07:56:10;;;;;;;4.65;2.15;;;;;;;24.30;59.98;96696.50;4995312;28;20050;-72
2023/07/14 07:58:36;;;;;;;3.33;1.90;;;;;;;24.55;57.27;96693.53;4991915;28;20049;-70
2023/07/14 08:01:03;;;;;;;4.03;2.17;;;;;;;26.42;52.84;96696.81;4995616;28;20034;-70
2023/07/14 08:03:30;;;;;;;5.32;1.88;;;;;;;27.92;48.37;96695.47;4983965;28;20046;-69
2023/07/14 08:06:04;;;;;;;4.47;2.25;;;;;;;27.28;48.75;96686.28;5001980;28;20141;-69
2023/07/14 08:08:31;;;;;;;6.13;1.77;;;;;;;24.68;55.29;96693.44;4983032;28;20034;-70
2023/07/14 08:10:57;;;;;;;5.80;1.75;;;;;;;23.69;59.13;96691.13;4982969;28;20046;-70
2023/07/14 08:13:25;;;;;;;3.30;1.90;;;;;;;24.51;56.05;96692.13;4977497;28;20180;-70
2023/07/14 08:15:52;;;;;;;5.28;2.13;;;;;;;23.23;60.18;96696.34;4983737;28;20050;-70
2023/07/14 08:18:17;;;;;;;5.80;2.00;;;;;;;23.80;58.99;96699.16;4977032;28;20045;-70
2023/07/14 08:20:43;;;;;;;4.45;1.90;;;;;;;25.14;55.31;96695.59;4980634;28;20038;-70
2023/07/14 08:23:13;;;;;;;5.60;2.30;;;;;;;23.57;59.35;96700.34;4959158;28;20599;-69
2023/07/14 08:25:39;;;;;;;5.60;2.15;;;;;;;24.74;57.61;96696.41;4982414;28;20045;-71
2023/07/14 08:28:05;;;;;;;7.20;2.08;;;;;;;26.49;53.11;96698.50;4978567;28;20178;-70
2023/07/14 08:30:31;;;;;;;3.92;1.80;;;;;;;26.98;49.97;96699.41;4981064;28;20550;-70
2023/07/14 08:32:57;;;;;;;5.22;1.70;;;;;;;27.08;50.53;96698.06;4983586;28;20550;-70
2023/07/14 08:35:22;;;;;;;3.10;1.85;;;;;;;26.25;49.67;96702.00;4977099;28;20599;-70
2023/07/14 08:37:48;;;;;;;4.43;1.98;;;;;;;27.30;47.10;96695.03;4982969;28;20047;-70
2023/07/14 08:40:20;;;;;;;8.70;2.20;;;;;;;26.40;49.29;96704.13;4994648;28;20050;-70
2023/07/14 08:43:24;;;;;;;5.97;2.05;;;;;;;24.60;53.63;96697.78;4982757;28;20499;-70
2023/07/14 08:46:19;;;;;;;6.38;1.92;;;;;;;24.65;53.17;96693.56;4981968;28;20049;-70
2023/07/14 08:48:58;;;;;;;8.18;2.05;;;;;;;24.26;55.12;96685.47;4981165;28;20061;-69
2023/07/14 08:51:44;;;;;;;;;;;;;;;24.97;52.61;96687.47;4981862;28;20726;-69
2023/07/14 08:54:16;;;;;;;4.50;2.00;;;;;;;26.56;49.26;96700.97;4979835;28;19914;-71
2023/07/14 08:56:44;;;;;;;5.43;2.20;;;;;;;25.68;51.38;96691.31;4986010;28;20415;-71
2023/07/14 08:59:38;;;;;;;4.55;2.08;;;;;;;25.77;50.85;96684.91;4983222;28;20042;-70
2023/07/14 09:02:30;;;;;;;3.17;2.05;;;;;;;25.15;50.72;96688.75;4978099;28;20038;-71
2023/07/14 09:05:03;;;;;;;4.55;1.90;;;;;;;26.31;50.34;96686.06;4984104;28;20491;-70
2023/07/14 09:07:29;;;;;;;3.05;1.65;;;;;;;26.41;50.01;96677.63;4948513;28;20047;-70
2023/07/14 09:09:55;;;;;;;4.72;1.92;;;;;;;26.74;47.47;96680.50;4967101;28;20092;-70
2023/07/14 09:12:37;;;;;;;4.70;1.88;;;;;;;26.78;47.30;96683.13;4962744;28;20039;-70
2023/07/14 09:15:05;;;;;;;5.28;2.20;;;;;;;26.12;48.79;96681.75;4967890;28;20125;-70
2023/07/14 09:17:42;;;;;;;3.97;1.88;;;;;;;26.03;49.88;96671.31;4984951;28;20046;-70
2023/07/14 09:20:26;;;;;;;6.20;2.10;;;;;;;24.72;51.91;96662.50;4982473;28;20057;-70
2023/07/14 09:23:00;;;;;;;6.78;1.90;;;;;;;24.39;51.92;96663.75;4984845;28;20526;-69
2023/07/14 09:25:29;;;;;;;8.30;2.40;;;;;;;24.83;52.72;96660.06;4980964;28;20093;-69
2023/07/14 09:27:55;;;;;;;4.30;2.20;;;;;;;25.97;49.01;96664.03;5000664;28;20042;-71
2023/07/14 09:30:26;;;;;;;3.33;1.85;;;;;;;26.14;48.81;96659.59;4979274;28;20499;-70
2023/07/14 09:32:57;;;;;;;6.10;1.88;;;;;;;25.39;51.52;96655.31;4983185;28;20050;-70
2023/07/14 09:35:28;;;;;;;6.38;2.00;;;;;;;25.54;49.47;96661.06;4979183;28;20034;-70
2023/07/14 09:38:23;;;;;;;5.20;1.60;;;;;;;25.01;51.03;96662.09;4984660;28;20048;-71
2023/07/14 09:40:56;;;;;;;4.57;1.95;;;;;;;24.92;50.62;96653.66;4963310;28;20050;-71
2023/07/14 09:43:21;;;;;;;2.38;1.50;;;;;;;26.37;48.06;96646.13;4977362;28;20034;-69
2023/07/14 09:45:53;;;;;;;5.13;1.58;;;;;;;25.35;48.12;96652.69;4985445;28;20041;-71
2023/07/14 09:48:23;;;;;;;5.55;1.70;;;;;;;25.66;49.18;96651.72;4981479;28;20427;-70
2023/07/14 09:51:00;;;;;;;4.60;1.90;;;;;;;25.49;47.57;96650.47;4984559;28;20580;-70
2023/07/14 09:53:27;;;;;;;4.53;2.03;;;;;;;25.63;48.81;96647.06;4987640;28;20046;-69
2023/07/14 09:55:58;;;;;;;4.53;1.80;;;;;;;26.12;47.65;96643.22;4982382;28;20141;-70
2023/07/14 09:58:27;;;;;;;6.45;2.08;;;;;;;25.16;50.83;96618.22;4982545;28;20046;-68
2023/07/14 10:00:56;;;;;;;4.57;1.95;;;;;;;25.70;48.53;96624.28;4971242;28;20526;-68
2023/07/14 10:03:28;;;;;;;3.97;2.10;;;;;;;25.19;49.91;96631.31;4982883;28;20586;-69
2023/07/14 10:06:05;;;;;;;6.57;2.00;;;;;;;26.42;47.47;96615.38;4990070;28;20053;-69
2023/07/14 10:08:33;;;;;;;5.68;2.00;;;;;;;26.68;46.77;96618.53;4982699;28;20043;-69
2023/07/14 10:11:13;;;;;;;4.38;2.13;;;;;;;26.48;48.76;96615.50;4990160;28;20058;-70
2023/07/14 10:13:38;;;;;;;8.93;2.22;;;;;;;25.30;48.60;96622.47;4999164;28;20068;-72
2023/07/14 10:16:14;;;;;;;4.47;1.80;;;;;;;26.27;46.65;96614.50;4979774;28;20503;-70
2023/07/14 10:19:00;;;;;;;3.97;1.80;;;;;;;26.47;46.65;96623.16;4984966;28;20042;-69
2023/07/14 10:21:31;;;;;;;7.65;2.00;;;;;;;27.15;44.59;96616.19;4940492;28;1192216;-69
2023/07/14 10:24:05;;;;;;;2.97;1.77;;;;;;;28.26;44.21;96608.78;4986268;28;20137;-69
2023/07/14 10:26:34;;;;;;;5.78;1.98;;;;;;;27.79;43.65;96603.66;4983527;28;20406;-70
2023/07/14 10:29:04;;;;;;;6.57;1.97;;;;;;;27.47;42.77;96605.34;4986224;28;20566;-69
2023/07/14 10:31:42;;;;;;;2.85;1.55;;;;;;;27.25;44.45;96603.63;4984832;28;20046;-69
2023/07/14 10:34:10;;;;;;;3.47;1.80;;;;;;;26.69;45.44;96602.47;4981623;28;20054;-70
2023/07/14 10:36:39;;;;;;;6.38;1.65;;;;;;;26.77;42.31;96602.88;4991705;28;20054;-70
2023/07/14 10:39:13;;;;;;;5.63;1.90;;;;;;;25.92;44.13;96596.03;4989159;28;20050;-69
2023/07/14 10:41:43;;;;;;;7.68;1.90;;;;;;;26.82;45.48;96586.16;4989500;28;20046;-71
2023/07/14 10:44:22;;;;;;;4.68;1.50;;;;;;;27.92;43.82;96588.53;5000543;28;20038;-71
2023/07/14 10:46:54;;;;;;;2.92;1.52;;;;;;;26.97;44.59;96586.19;5006205;28;20043;-71
2023/07/14 10:49:36;;;;;;;4.18;1.35;;;;;;;27.14;43.86;96585.78;4992640;28;20112;-71
2023/07/14 10:52:11;;;;;;;3.38;1.85;;;;;;;27.74;41.83;96587.44;4990048;28;20049;-70
2023/07/14 10:54:45;;;;;;;3.58;1.45;;;;;;;26.92;44.32;96584.06;4991138;28;20153;-71
2023/07/14 10:57:24;;;;;;;4.35;1.70;;;;;;;27.00;43.69;96578.84;4982120;28;20042;-70
2023/07/14 10:59:58;;;;;;;5.20;2.25;;;;;;;27.36;43.17;96579.84;4986162;28;20099;-70
2023/07/14 11:02:34;;;;;;;7.00;2.25;;;;;;;28.20;41.02;96570.06;4979708;28;20239;-69
2023/07/14 11:05:10;;;;;;;2.42;1.38;;;;;;;28.93;39.71;96578.00;4985584;28;20567;-69
2023/07/14 11:07:36;;;;;;;3.25;1.40;;;;;;;28.31;39.40;96566.63;4989051;28;20069;-69
2023/07/14 11:10:11;;;;;;;2.30;1.35;;;;;;;29.01;38.58;96570.69;4988765;28;20042;-71
2023/07/14 11:12:52;;;;;;;4.88;1.45;;;;;;;28.07;38.91;96566.00;4986357;28;20140;-71
2023/07/14 11:15:31;;;;;;;6.38;1.27;;;;;;;28.26;38.71;96563.75;4955270;28;20456;-70
2023/07/14 11:18:20;;;;;;;2.63;1.17;;;;;;;28.36;39.83;96565.16;4999489;28;20400;-70
2023/07/14 11:21:07;;;;;;;4.88;1.80;;;;;;;28.93;42.55;96556.22;4985494;28;20038;-69
2023/07/14 11:23:43;;;;;;;4.25;1.80;;;;;;;28.72;42.25;96552.66;4986415;28;20109;-70
2023/07/14 11:26:25;;;;;;;5.60;1.67;;;;;;;29.34;42.52;96553.41;4982608;28;20065;-69
2023/07/14 11:29:13;;;;;;;2.60;1.52;;;;;;;29.31;36.53;96553.63;4984767;28;20125;-70
2023/07/14 11:31:56;;;;;;;3.43;1.50;;;;;;;29.16;38.27;96548.84;4984624;28;20071;-70
2023/07/14 11:34:40;;;;;;;3.67;1.20;;;;;;;27.79;42.07;96546.59;4981597;28;20057;-70
2023/07/14 11:37:24;;;;;;;4.13;1.58;;;;;;;27.92;39.27;96541.47;4979936;28;20042;-69
2023/07/14 11:39:57;;;;;;;3.15;2.10;;;;;;;28.06;38.57;96551.16;4987120;28;20089;-70
2023/07/14 11:42:35;;;;;;;3.97;1.50;;;;;;;28.16;38.38;96540.53;4980892;28;20050;-70